createdAt,value
2023-02-08T00:01:39.619Z,18.20
2023-02-08T00:04:25.660Z,15.32
2023-02-08T00:07:11.312Z,13.52
2023-02-08T00:09:57.188Z,12.65
2023-02-08T00:12:42.859Z,12.85
2023-02-08T00:15:29.045Z,12.18
2023-02-08T00:18:15.014Z,12.77
2023-02-08T00:21:00.910Z,12.20
2023-02-08T00:23:46.809Z,12.40
2023-02-08T00:26:32.652Z,12.75
2023-02-08T00:29:19.105Z,12.50
2023-02-08T00:32:05.221Z,13.60
2023-02-08T00:34:51.361Z,11.40
2023-02-08T00:37:37.204Z,12.90
2023-02-08T00:40:23.104Z,11.38
2023-02-08T00:43:09.555Z,12.23
2023-02-08T00:45:56.756Z,12.05
2023-02-08T00:48:43.706Z,14.23
2023-02-08T00:51:29.666Z,12.55
2023-02-08T00:54:17.226Z,12.65
2023-02-08T00:57:03.080Z,12.02
2023-02-08T00:59:49.304Z,12.73
2023-02-08T01:02:35.243Z,12.45
2023-02-08T01:05:20.995Z,12.27
2023-02-08T01:08:07.072Z,12.02
2023-02-08T01:10:53.352Z,11.77
2023-02-08T01:13:41.876Z,11.65
2023-02-08T01:16:31.754Z,12.40
2023-02-08T01:19:19.583Z,15.85
2023-02-08T01:22:05.765Z,11.75
2023-02-08T01:24:51.511Z,14.73
2023-02-08T01:27:37.438Z,13.75
2023-02-08T01:30:24.036Z,11.35
2023-02-08T01:33:10.144Z,12.77
2023-02-08T01:35:56.046Z,12.63
2023-02-08T01:38:42.661Z,12.15
2023-02-08T01:41:34.423Z,11.77
2023-02-08T01:44:57.879Z,12.57
2023-02-08T01:47:45.470Z,11.40
2023-02-08T01:50:43.007Z,11.57
2023-02-08T01:53:30.861Z,10.95
2023-02-08T01:56:23.253Z,11.38
2023-02-08T01:59:13.982Z,11.60
2023-02-08T02:02:00.836Z,11.13
2023-02-08T02:04:48.255Z,11.02
2023-02-08T02:07:33.978Z,11.75
2023-02-08T02:10:26.820Z,11.25
2023-02-08T02:13:20.439Z,10.00
2023-02-08T02:16:06.951Z,10.68
2023-02-08T02:18:53.836Z,11.57
2023-02-08T02:21:39.798Z,11.77
2023-02-08T02:24:34.295Z,11.32
2023-02-08T02:27:59.109Z,11.40
2023-02-08T02:31:19.633Z,12.35
2023-02-08T02:34:31.666Z,11.98
2023-02-08T02:37:49.655Z,11.77
2023-02-08T02:40:56.717Z,11.10
2023-02-08T02:43:47.721Z,11.32
2023-02-08T02:46:43.432Z,11.57
2023-02-08T02:49:37.204Z,12.40
2023-02-08T02:52:34.654Z,11.48
2023-02-08T02:55:22.976Z,12.25
2023-02-08T02:58:11.045Z,11.18
2023-02-08T03:00:58.606Z,11.93
2023-02-08T03:03:44.468Z,11.93
2023-02-08T03:06:57.465Z,12.35
2023-02-08T03:09:55.617Z,12.10
2023-02-08T03:13:19.356Z,12.98
2023-02-08T03:16:14.393Z,11.13
2023-02-08T03:19:08.126Z,11.65
2023-02-08T03:21:53.815Z,12.70
2023-02-08T03:25:00.673Z,11.57
2023-02-08T03:28:02.085Z,12.40
2023-02-08T03:30:52.752Z,12.02
2023-02-08T03:33:45.816Z,12.30
2023-02-08T03:36:49.550Z,12.60
2023-02-08T03:39:36.621Z,12.50
2023-02-08T03:42:25.559Z,12.07
2023-02-08T03:45:25.135Z,11.98
2023-02-08T03:48:12.367Z,12.20
2023-02-08T03:50:59.009Z,12.88
2023-02-08T03:53:46.542Z,12.35
2023-02-08T03:56:41.732Z,11.35
2023-02-08T03:59:30.950Z,11.77
2023-02-08T04:02:20.106Z,11.80
2023-02-08T04:05:06.750Z,11.50
2023-02-08T04:07:52.910Z,11.23
2023-02-08T04:10:39.116Z,11.13
2023-02-08T04:13:25.383Z,11.45
2023-02-08T04:16:12.408Z,12.48
2023-02-08T04:18:58.284Z,12.13
2023-02-08T04:21:44.077Z,11.60
2023-02-08T04:24:29.870Z,11.05
2023-02-08T04:27:15.737Z,11.95
2023-02-08T04:30:01.659Z,11.77
2023-02-08T04:32:47.495Z,11.60
2023-02-08T04:35:34.347Z,11.60
2023-02-08T04:38:20.089Z,11.32
2023-02-08T04:41:06.006Z,12.15
2023-02-08T04:43:51.807Z,11.15
2023-02-08T04:46:37.768Z,11.80
2023-02-08T04:49:23.575Z,11.73
2023-02-08T04:52:09.428Z,11.88
2023-02-08T04:54:55.118Z,11.45
2023-02-08T04:57:40.871Z,11.27
2023-02-08T05:00:27.150Z,12.35
2023-02-08T05:03:13.714Z,12.38
2023-02-08T05:06:00.226Z,11.88
2023-02-08T05:08:46.349Z,12.13
2023-02-08T05:11:32.319Z,10.70
2023-02-08T05:14:18.199Z,11.63
2023-02-08T05:17:04.091Z,12.55
2023-02-08T05:19:49.774Z,12.15
2023-02-08T05:22:35.964Z,12.18
2023-02-08T05:25:22.058Z,12.63
2023-02-08T05:28:07.830Z,12.60
2023-02-08T05:30:53.666Z,12.45
2023-02-08T05:33:39.493Z,13.63
2023-02-08T05:36:25.365Z,12.65
2023-02-08T05:39:11.145Z,11.18
2023-02-08T05:41:56.978Z,12.85
2023-02-08T05:44:42.745Z,11.98
2023-02-08T05:47:28.766Z,11.60
2023-02-08T05:50:14.911Z,11.45
2023-02-08T05:53:04.890Z,11.32
2023-02-08T05:55:56.902Z,11.95
2023-02-08T05:58:42.677Z,11.88
2023-02-08T06:01:29.288Z,11.65
2023-02-08T06:04:15.425Z,12.57
2023-02-08T06:07:01.235Z,12.40
2023-02-08T06:09:48.580Z,12.55
2023-02-08T06:12:34.861Z,11.57
2023-02-08T06:15:20.763Z,12.25
2023-02-08T06:18:06.512Z,12.55
2023-02-08T06:20:54.316Z,12.30
2023-02-08T06:23:41.308Z,13.10
2023-02-08T06:26:27.299Z,12.05
2023-02-08T06:29:16.586Z,15.00
2023-02-08T06:32:03.132Z,13.20
2023-02-08T06:34:50.948Z,13.48
2023-02-08T06:37:36.766Z,12.13
2023-02-08T06:40:22.706Z,11.43
2023-02-08T06:43:08.658Z,12.77
2023-02-08T06:45:54.849Z,13.85
2023-02-08T06:48:40.687Z,11.85
2023-02-08T06:51:27.467Z,11.55
2023-02-08T06:54:15.669Z,11.32
2023-02-08T06:57:02.022Z,13.00
2023-02-08T06:59:47.802Z,12.15
2023-02-08T07:02:33.977Z,14.35
2023-02-08T07:05:20.049Z,13.70
2023-02-08T07:08:06.626Z,14.15
2023-02-08T07:10:52.839Z,18.45
2023-02-08T07:13:38.790Z,14.07
2023-02-08T07:16:26.169Z,13.48
2023-02-08T07:19:11.958Z,12.18
2023-02-08T07:21:59.450Z,12.80
2023-02-08T07:24:45.480Z,12.88
2023-02-08T07:27:31.425Z,13.57
2023-02-08T07:30:17.242Z,12.82
2023-02-08T07:33:03.083Z,14.27
2023-02-08T07:35:49.061Z,14.82
2023-02-08T07:38:35.299Z,14.32
2023-02-08T07:41:21.261Z,12.68
2023-02-08T07:44:07.541Z,15.38
2023-02-08T07:46:53.422Z,13.85
2023-02-08T07:49:39.215Z,13.63
2023-02-08T07:52:24.919Z,14.35
2023-02-08T07:55:11.841Z,14.25
2023-02-08T07:57:58.728Z,15.27
2023-02-08T08:00:44.447Z,14.73
2023-02-08T08:03:30.373Z,13.90
2023-02-08T08:06:16.268Z,14.30
2023-02-08T08:09:02.077Z,12.80
2023-02-08T08:11:47.880Z,14.23
2023-02-08T08:14:33.556Z,14.25
2023-02-08T08:17:19.819Z,14.27
2023-02-08T08:20:06.003Z,13.13
2023-02-08T08:22:52.101Z,15.52
2023-02-08T08:25:38.201Z,14.10
2023-02-08T08:28:24.276Z,13.85
2023-02-08T08:31:19.223Z,15.32
2023-02-08T08:34:05.389Z,13.48
2023-02-08T08:36:51.195Z,13.60
2023-02-08T08:39:37.275Z,13.45
2023-02-08T08:42:22.951Z,14.13
2023-02-08T08:45:09.507Z,12.75
2023-02-08T08:47:55.665Z,13.55
2023-02-08T08:50:43.281Z,13.90
2023-02-08T08:53:29.617Z,12.38
2023-02-08T08:56:15.708Z,14.57
2023-02-08T08:59:01.477Z,13.55
2023-02-08T09:01:47.262Z,14.68
2023-02-08T09:04:33.688Z,17.33
2023-02-08T09:07:19.724Z,15.57
2023-02-08T09:10:06.149Z,13.20
2023-02-08T09:12:53.096Z,13.20
2023-02-08T09:15:40.679Z,14.43
2023-02-08T09:18:26.426Z,13.30
2023-02-08T09:21:21.136Z,12.10
2023-02-08T09:24:07.025Z,14.77
2023-02-08T09:26:52.713Z,13.73
2023-02-08T09:29:38.436Z,13.15
2023-02-08T09:32:24.146Z,13.90
2023-02-08T09:35:09.960Z,11.82
2023-02-08T09:37:58.204Z,12.00
2023-02-08T09:41:22.728Z,13.70
2023-02-08T09:44:26.663Z,14.18
2023-02-08T09:47:22.548Z,12.80
2023-02-08T09:50:39.729Z,14.20
2023-02-08T09:53:32.522Z,12.93
2023-02-08T09:56:22.103Z,12.95
2023-02-08T09:59:23.193Z,13.52
2023-02-08T10:02:21.664Z,12.90
2023-02-08T10:05:11.386Z,13.88
2023-02-08T10:07:58.640Z,14.57
2023-02-08T10:10:49.184Z,17.25
2023-02-08T10:13:44.506Z,15.90
2023-02-08T10:16:33.380Z,16.00
2023-02-08T10:19:55.518Z,17.10
2023-02-08T10:23:03.273Z,16.02
2023-02-08T10:26:29.501Z,15.32
2023-02-08T10:29:38.736Z,14.45
2023-02-08T10:33:00.592Z,15.30
2023-02-08T10:35:54.377Z,15.50
2023-02-08T10:38:46.697Z,23.17
2023-02-08T10:41:38.033Z,21.58
2023-02-08T10:44:56.636Z,19.70
2023-02-08T10:47:55.738Z,17.63
2023-02-08T10:50:46.315Z,20.67
2023-02-08T10:53:35.461Z,20.90
2023-02-08T10:56:39.164Z,19.13
2023-02-08T10:59:30.936Z,17.58
2023-02-08T11:02:28.834Z,17.95
2023-02-08T11:05:20.049Z,19.92
2023-02-08T11:08:10.726Z,20.25
2023-02-08T11:11:04.540Z,20.63
2023-02-08T11:13:51.722Z,20.17
2023-02-08T11:16:42.384Z,25.52
2023-02-08T11:19:37.657Z,24.88
2023-02-08T11:22:25.559Z,24.00
2023-02-08T11:25:32.881Z,22.65
2023-02-08T11:28:40.959Z,21.52
2023-02-08T11:31:36.552Z,23.33
2023-02-08T11:34:35.598Z,18.42
2023-02-08T11:37:28.084Z,18.83
2023-02-08T11:43:07.999Z,16.52
2023-02-08T11:45:56.069Z,14.48
2023-02-08T11:48:49.427Z,13.00
2023-02-08T11:51:36.807Z,13.38
2023-02-08T11:54:41.461Z,13.95
2023-02-08T11:57:31.811Z,15.60
2023-02-08T12:00:23.915Z,27.98
2023-02-08T12:03:18.595Z,24.02
2023-02-08T12:06:18.015Z,14.00
2023-02-08T12:09:27.311Z,13.55
2023-02-08T12:12:17.791Z,24.63
2023-02-08T12:15:09.856Z,16.88
2023-02-08T12:18:14.283Z,19.20
2023-02-08T12:21:17.674Z,15.90
2023-02-08T12:24:08.160Z,21.30
2023-02-08T12:27:27.513Z,17.75
2023-02-08T12:30:30.302Z,18.80
2023-02-08T12:33:34.470Z,17.02
2023-02-08T12:36:41.370Z,13.68
2023-02-08T12:40:01.185Z,12.65
2023-02-08T12:43:00.617Z,14.15
2023-02-08T12:46:01.572Z,14.65
2023-02-08T12:48:59.709Z,12.25
2023-02-08T12:52:18.086Z,15.82
2023-02-08T12:55:25.899Z,15.40
2023-02-08T12:58:37.305Z,17.48
2023-02-08T13:01:30.028Z,29.00
2023-02-08T13:04:43.599Z,10.50
2023-02-08T13:07:33.909Z,11.15
2023-02-08T13:10:30.648Z,10.20
2023-02-08T13:13:22.379Z,10.20
2023-02-08T13:16:20.362Z,9.70
2023-02-08T13:19:22.581Z,10.95
2023-02-08T13:22:10.189Z,9.85
2023-02-08T13:25:12.122Z,8.18
2023-02-08T13:28:04.764Z,8.68
2023-02-08T13:31:02.848Z,8.05
2023-02-08T13:34:32.830Z,9.57
2023-02-08T13:37:31.497Z,10.38
2023-02-08T13:40:28.253Z,8.88
2023-02-08T13:43:37.741Z,8.38
2023-02-08T13:46:27.895Z,9.35
2023-02-08T13:49:41.568Z,8.90
2023-02-08T13:52:48.966Z,9.07
2023-02-08T13:55:41.584Z,10.27
2023-02-08T13:58:36.409Z,12.82
2023-02-08T14:01:27.864Z,9.25
2023-02-08T14:04:13.738Z,10.27
2023-02-08T14:07:08.460Z,11.73
2023-02-08T14:10:22.543Z,9.02
2023-02-08T14:13:27.379Z,8.25
2023-02-08T14:16:34.517Z,9.07
2023-02-08T14:19:24.671Z,8.40
2023-02-08T14:22:14.027Z,9.43
2023-02-08T14:25:16.985Z,8.75
2023-02-08T14:28:03.427Z,9.07
2023-02-08T14:30:52.084Z,9.77
2023-02-08T14:33:41.819Z,10.80
2023-02-08T14:36:35.557Z,12.52
2023-02-08T14:39:25.049Z,9.35
2023-02-08T14:42:13.939Z,11.40
2023-02-08T14:45:01.417Z,10.65
2023-02-08T14:47:47.102Z,11.70
2023-02-08T14:50:36.074Z,12.38
2023-02-08T14:53:24.580Z,12.63
2023-02-08T14:56:18.309Z,10.82
2023-02-08T14:59:26.672Z,9.50
2023-02-08T15:02:16.285Z,9.40
2023-02-08T15:05:09.950Z,9.20
2023-02-08T15:07:57.831Z,9.02
2023-02-08T15:10:45.465Z,10.15
2023-02-08T15:13:31.552Z,9.75
2023-02-08T15:16:17.417Z,9.25
2023-02-08T15:19:04.456Z,8.80
2023-02-08T15:21:50.571Z,9.45
2023-02-08T15:24:37.948Z,13.45
2023-02-08T15:27:27.058Z,17.73
2023-02-08T15:30:37.450Z,12.20
2023-02-08T15:33:23.325Z,11.50
2023-02-08T15:36:17.126Z,11.48
2023-02-08T15:39:23.296Z,10.05
2023-02-08T15:42:21.031Z,11.20
2023-02-08T15:45:24.578Z,9.45
2023-02-08T15:48:11.337Z,8.65
2023-02-08T15:50:57.529Z,12.68
2023-02-08T15:53:46.046Z,20.20
2023-02-08T15:56:38.666Z,21.73
2023-02-08T15:59:29.004Z,26.45
2023-02-08T16:02:23.916Z,11.82
2023-02-08T16:05:20.915Z,18.17
2023-02-08T16:08:07.242Z,10.75
2023-02-08T16:11:11.987Z,10.45
2023-02-08T16:13:59.395Z,9.88
2023-02-08T16:16:49.541Z,10.02
2023-02-08T16:19:35.332Z,11.90
2023-02-08T16:22:21.272Z,12.98
2023-02-08T16:25:34.035Z,14.18
2023-02-08T16:28:28.837Z,12.30
2023-02-08T16:31:20.383Z,13.40
2023-02-08T16:34:08.064Z,13.80
2023-02-08T16:36:54.870Z,9.73
2023-02-08T16:39:50.244Z,8.77
2023-02-08T16:42:40.045Z,14.15
2023-02-08T16:45:25.862Z,9.57
2023-02-08T16:48:51.207Z,10.77
2023-02-08T16:51:39.514Z,12.43
2023-02-08T16:54:28.375Z,9.77
2023-02-08T16:57:14.697Z,9.07
2023-02-08T17:00:00.935Z,11.43
2023-02-08T17:02:47.555Z,11.95
2023-02-08T17:05:38.483Z,12.38
2023-02-08T17:08:24.325Z,10.40
2023-02-08T17:11:13.461Z,9.73
2023-02-08T17:14:01.181Z,10.48
2023-02-08T17:16:47.378Z,12.32
2023-02-08T17:19:33.171Z,12.55
2023-02-08T17:22:19.556Z,11.40
2023-02-08T17:25:06.032Z,12.23
2023-02-08T17:27:58.164Z,11.55
2023-02-08T17:30:44.927Z,11.30
2023-02-08T17:33:33.288Z,12.23
2023-02-08T17:36:19.592Z,14.15
2023-02-08T17:39:06.246Z,14.10
2023-02-08T17:41:52.301Z,11.25
2023-02-08T17:44:38.027Z,12.25
2023-02-08T17:47:24.430Z,13.82
2023-02-08T17:50:12.519Z,14.48
2023-02-08T17:52:58.269Z,12.20
2023-02-08T17:55:45.574Z,14.05
2023-02-08T17:58:32.044Z,12.20
2023-02-08T18:01:21.645Z,12.48
2023-02-08T18:04:11.221Z,13.85
2023-02-08T18:06:57.384Z,12.27
2023-02-08T18:09:43.253Z,11.13
2023-02-08T18:12:29.245Z,14.25
2023-02-08T18:15:18.037Z,14.27
2023-02-08T18:18:04.127Z,14.45
2023-02-08T18:20:50.342Z,13.90
2023-02-08T18:23:36.389Z,14.63
2023-02-08T18:26:24.085Z,13.98
2023-02-08T18:29:11.161Z,14.75
2023-02-08T18:31:57.503Z,15.45
2023-02-08T18:34:45.303Z,13.95
2023-02-08T18:37:32.376Z,12.60
2023-02-08T18:40:18.434Z,12.45
2023-02-08T18:43:04.395Z,11.75
2023-02-08T18:46:04.646Z,11.73
2023-02-08T18:48:51.519Z,14.57
2023-02-08T18:51:37.643Z,14.52
2023-02-08T18:54:23.541Z,19.30
2023-02-08T18:57:12.288Z,18.98
2023-02-08T18:59:58.566Z,17.23
2023-02-08T19:02:46.097Z,16.73
2023-02-08T19:05:32.450Z,17.60
2023-02-08T19:08:18.194Z,18.30
2023-02-08T19:11:05.180Z,13.45
2023-02-08T19:13:52.170Z,13.77
2023-02-08T19:16:39.033Z,20.60
2023-02-08T19:19:25.421Z,24.10
2023-02-08T19:22:11.190Z,20.02
2023-02-08T19:24:57.393Z,18.80
2023-02-08T19:27:45.004Z,19.25
2023-02-08T19:30:30.762Z,17.48
2023-02-08T19:33:16.671Z,18.42
2023-02-08T19:36:10.004Z,16.80
2023-02-08T19:38:58.404Z,17.40
2023-02-08T19:41:45.452Z,18.80
2023-02-08T19:44:31.721Z,17.48
2023-02-08T19:47:18.505Z,13.70
2023-02-08T19:50:05.563Z,15.38
2023-02-08T19:52:51.389Z,30.20
2023-02-08T19:55:37.311Z,30.08
2023-02-08T19:58:23.369Z,38.45
2023-02-08T20:01:12.785Z,40.78
2023-02-08T20:03:58.691Z,37.63
2023-02-08T20:06:45.218Z,31.27
2023-02-08T20:09:31.276Z,22.90
2023-02-08T20:12:17.143Z,19.42
2023-02-08T20:15:03.013Z,18.85
2023-02-08T20:17:48.923Z,18.50
2023-02-08T20:20:35.951Z,19.25
2023-02-08T20:23:23.020Z,20.13
2023-02-08T20:26:14.060Z,19.05
2023-02-08T20:29:00.063Z,19.15
2023-02-08T20:31:52.207Z,21.17
2023-02-08T20:34:40.962Z,27.58
2023-02-08T20:37:33.996Z,20.95
2023-02-08T20:40:19.819Z,22.52
2023-02-08T20:43:05.674Z,23.52
2023-02-08T20:45:51.562Z,22.60
2023-02-08T20:48:37.498Z,24.15
2023-02-08T20:51:25.872Z,22.17
2023-02-08T20:54:12.331Z,23.45
2023-02-08T20:56:58.563Z,23.48
2023-02-08T20:59:45.619Z,23.08
2023-02-08T21:02:31.649Z,26.17
2023-02-08T21:05:17.552Z,24.77
2023-02-08T21:08:03.563Z,22.60
2023-02-08T21:10:49.347Z,21.58
2023-02-08T21:13:35.542Z,26.45
2023-02-08T21:16:21.927Z,25.80
2023-02-08T21:19:07.667Z,24.17
2023-02-08T21:21:55.396Z,23.98
2023-02-08T21:24:41.598Z,26.20
2023-02-08T21:27:27.427Z,28.50
2023-02-08T21:30:13.452Z,25.02
2023-02-08T21:32:59.472Z,25.30
2023-02-08T21:35:45.221Z,24.05
2023-02-08T21:38:31.439Z,24.45
2023-02-08T21:41:20.463Z,23.23
2023-02-08T21:44:08.307Z,23.65
2023-02-08T21:46:54.570Z,23.48
2023-02-08T21:49:59.029Z,24.85
2023-02-08T21:53:03.648Z,25.15
2023-02-08T21:55:49.470Z,22.30
2023-02-08T21:58:35.597Z,25.33
2023-02-08T22:01:21.704Z,22.60
2023-02-08T22:04:07.588Z,22.90
2023-02-08T22:06:53.354Z,25.70
2023-02-08T22:09:41.648Z,25.35
2023-02-08T22:12:27.457Z,26.00
2023-02-08T22:15:16.201Z,27.85
2023-02-08T22:18:03.135Z,29.98
2023-02-08T22:20:52.225Z,26.52
2023-02-08T22:23:38.135Z,24.40
2023-02-08T22:26:24.017Z,23.25
2023-02-08T22:29:10.603Z,21.52
2023-02-08T22:31:56.798Z,24.48
2023-02-08T22:34:44.497Z,25.30
2023-02-08T22:37:32.888Z,26.02
2023-02-08T22:40:19.149Z,27.48
2023-02-08T22:43:05.082Z,25.20
2023-02-08T22:46:00.701Z,26.20
2023-02-08T22:48:46.905Z,25.45
2023-02-08T22:51:32.690Z,26.08
2023-02-08T22:54:18.530Z,25.95
2023-02-08T22:57:06.026Z,26.50
2023-02-08T22:59:52.155Z,26.70
2023-02-08T23:02:38.008Z,27.83
2023-02-08T23:05:23.764Z,25.58
2023-02-08T23:08:10.375Z,22.42
2023-02-08T23:11:05.068Z,25.15
2023-02-08T23:13:51.102Z,26.05
2023-02-08T23:16:37.157Z,23.98
2023-02-08T23:19:23.429Z,25.30
2023-02-08T23:22:09.562Z,22.77
2023-02-08T23:24:55.670Z,22.15
2023-02-08T23:27:41.748Z,23.92
2023-02-08T23:30:27.710Z,24.90
2023-02-08T23:33:13.574Z,23.35
2023-02-08T23:35:59.444Z,21.73
2023-02-08T23:38:45.356Z,23.65
2023-02-08T23:41:31.544Z,23.45
2023-02-08T23:44:17.781Z,21.80
2023-02-08T23:47:03.560Z,21.33
2023-02-08T23:49:49.511Z,22.83
2023-02-08T23:52:36.556Z,22.50
2023-02-08T23:55:23.587Z,21.13
2023-02-08T23:58:09.741Z,21.95
